Canoinhas, Brazil
Current Conditions -  °F | °C
As of 11:00 PM on Wednesday 22 Oct 2014 (Local Time) from SBCT Reporting Station
Overcast Overcast  
Wind Chill: 55°   Ceiling: 800
Heat Index: 55°   Visibility: 6mi
Dew Point: 54°   Wind: 12mph
Humidity: 94%   Direction: 110°ESE
Pressure: 30.27"   Gusts: NA
Location:  26.18°S, 50.4°W
Report Text: SBCT 230100Z 11010KT 9999 SCT006 BKN008 OVC015 13/12 Q1025
Loading
Personal Weather Stations






























Interactive Weather Map
Tropical Storm Tracking
New forecast layout! Learn more

10-Day Weather Forecast

Advertisements
Track Severe Weather on mobile